Time;durP1;ratioP1;P1;durP2;ratioP2;P2;SDS_P1;SDS_P2;PMS_P1;PMS_P2;Temp;Humidity;BMP_temperature;BMP_pressure;BME280_temperature;BME280_humidity;BME280_pressure;Samples;Min_cycle;Max_cycle;Signal;HPM_P1;HPM_P2
2024/01/24 00:00:37;;;;;;;16.95;2.30;;;11.50;99.90;;;;;;5038759;28;20405;-71
2024/01/24 00:03:03;;;;;;;18.67;2.80;;;11.50;99.90;;;;;;5074850;28;20183;-71
2024/01/24 00:05:29;;;;;;;15.20;2.78;;;11.30;99.90;;;;;;5093384;28;20036;-71
2024/01/24 00:07:55;;;;;;;11.52;1.83;;;11.60;99.90;;;;;;5031679;28;20047;-71
2024/01/24 00:10:21;;;;;;;15.00;2.67;;;11.60;99.90;;;;;;5042762;28;20048;-72
2024/01/24 00:12:47;;;;;;;13.32;2.33;;;11.60;99.90;;;;;;5060211;28;20465;-72
2024/01/24 00:15:13;;;;;;;15.45;2.35;;;11.20;99.90;;;;;;5059631;28;20078;-71
2024/01/24 00:17:39;;;;;;;13.38;1.75;;;11.20;99.90;;;;;;5042896;28;20085;-71
2024/01/24 00:20:05;;;;;;;14.65;2.78;;;11.10;99.90;;;;;;5042900;28;20122;-71
2024/01/24 00:22:31;;;;;;;23.15;3.22;;;11.50;99.90;;;;;;5042840;28;20359;-71
2024/01/24 00:24:57;;;;;;;17.42;2.95;;;11.10;99.90;;;;;;5058979;28;20288;-70
2024/01/24 00:27:23;;;;;;;23.42;3.50;;;11.40;99.90;;;;;;5076516;28;20413;-71
2024/01/24 00:29:48;;;;;;;14.57;3.15;;;11.70;99.90;;;;;;5046560;28;20042;-71
2024/01/24 00:32:14;;;;;;;11.73;1.85;;;11.20;99.90;;;;;;5064065;28;20040;-70
2024/01/24 00:34:40;;;;;;;17.10;2.60;;;11.50;99.90;;;;;;5061350;28;20039;-69
2024/01/24 00:37:05;;;;;;;17.08;2.08;;;11.50;99.90;;;;;;5061202;28;20627;-69
2024/01/24 00:39:31;;;;;;;17.10;2.58;;;11.10;99.90;;;;;;5061666;28;20046;-70
2024/01/24 00:41:59;;;;;;;21.13;2.85;;;11.10;99.90;;;;;;5079079;28;20134;-70
2024/01/24 00:44:25;;;;;;;12.43;2.03;;;11.60;99.90;;;;;;5078824;28;20174;-69
2024/01/24 00:46:51;;;;;;;21.40;2.90;;;11.30;99.90;;;;;;5073486;28;20060;-71
2024/01/24 00:49:18;;;;;;;20.65;2.65;;;11.10;99.90;;;;;;5057570;28;20070;-70
2024/01/24 00:51:44;;;;;;;18.38;2.45;;;11.10;99.90;;;;;;5026935;28;20032;-72
2024/01/24 00:54:09;;;;;;;20.60;2.67;;;11.30;99.90;;;;;;5058830;28;20304;-70
2024/01/24 00:56:35;;;;;;;25.98;3.10;;;11.10;99.90;;;;;;5073209;28;20044;-70
2024/01/24 00:59:01;;;;;;;17.58;2.30;;;11.00;99.90;;;;;;5075523;28;20040;-71
2024/01/24 01:01:27;;;;;;;23.92;3.53;;;11.40;99.90;;;;;;5041339;28;20118;-71
2024/01/24 01:03:52;;;;;;;18.38;2.25;;;11.50;99.90;;;;;;5071930;28;20085;-71
2024/01/24 01:06:18;;;;;;;22.15;2.78;;;11.10;99.90;;;;;;5038354;28;20162;-72
2024/01/24 01:08:44;;;;;;;16.90;1.98;;;11.10;99.90;;;;;;5038995;28;20522;-71
2024/01/24 01:11:10;;;;;;;23.27;3.30;;;11.30;99.90;;;;;;5072928;28;20476;-70
2024/01/24 01:13:36;;;;;;;21.50;3.17;;;11.50;99.90;;;;;;5072641;28;20044;-70
2024/01/24 01:16:01;;;;;;;18.70;2.83;;;11.10;99.90;;;;;;5073210;28;20351;-69
2024/01/24 01:18:27;;;;;;;20.35;2.53;;;11.10;99.90;;;;;;5073376;28;20032;-69
2024/01/24 01:20:53;;;;;;;17.63;2.67;;;11.10;99.90;;;;;;5072818;28;20235;-70
2024/01/24 01:23:19;;;;;;;19.50;2.88;;;11.20;99.90;;;;;;5060549;28;20229;-70
2024/01/24 01:25:44;;;;;;;21.58;2.25;;;11.30;99.90;;;;;;5055888;28;20051;-70
2024/01/24 01:28:10;;;;;;;15.63;1.77;;;11.40;99.90;;;;;;5072520;28;20509;-70
2024/01/24 01:30:36;;;;;;;24.75;2.22;;;11.00;99.90;;;;;;5055440;28;20127;-71
2024/01/24 01:33:02;;;;;;;23.40;2.25;;;11.30;99.90;;;;;;5044067;28;20046;-71
2024/01/24 01:35:28;;;;;;;16.45;1.55;;;11.20;99.90;;;;;;5055472;28;20513;-71
2024/01/24 01:37:53;;;;;;;15.35;2.00;;;11.40;99.90;;;;;;5055762;28;20040;-71
2024/01/24 01:40:19;;;;;;;16.25;2.00;;;11.00;99.90;;;;;;5055090;28;20043;-69
2024/01/24 01:42:45;;;;;;;13.30;1.85;;;11.50;99.90;;;;;;5071535;28;20477;-71
2024/01/24 01:45:12;;;;;;;16.92;1.73;;;11.00;99.90;;;;;;5074328;28;20385;-71
2024/01/24 01:47:39;;;;;;;12.32;1.35;;;11.90;99.90;;;;;;5074086;28;20051;-70
2024/01/24 01:50:13;;;;;;;14.35;1.75;;;11.30;99.90;;;;;;5108772;27;20280;-68
2024/01/24 01:52:41;;;;;;;20.23;2.08;;;11.20;99.90;;;;;;5090930;28;20039;-70
2024/01/24 01:55:09;;;;;;;13.45;1.58;;;11.80;99.90;;;;;;5075544;28;20455;-69
2024/01/24 01:57:35;;;;;;;12.45;1.58;;;12.10;99.90;;;;;;5057881;28;20039;-70
2024/01/24 02:00:02;;;;;;;18.40;1.77;;;12.00;99.90;;;;;;5074693;28;20290;-71
2024/01/24 02:02:28;;;;;;;15.82;1.92;;;11.70;99.90;;;;;;5057892;28;20715;-70
2024/01/24 02:04:54;;;;;;;14.25;1.80;;;11.90;99.90;;;;;;5074446;28;20046;-71
2024/01/24 02:07:20;;;;;;;12.07;1.27;;;11.80;99.90;;;;;;5074508;28;20031;-71
2024/01/24 02:09:46;;;;;;;9.27;1.23;;;11.70;99.90;;;;;;5058143;28;20035;-70
2024/01/24 02:12:11;;;;;;;15.93;1.45;;;11.60;99.90;;;;;;5058161;28;20035;-70
2024/01/24 02:14:37;;;;;;;13.75;1.27;;;11.60;99.90;;;;;;5057283;28;20043;-69
2024/01/24 02:17:03;;;;;;;8.18;1.00;;;11.50;99.90;;;;;;5074459;28;20118;-69
2024/01/24 02:19:31;;;;;;;12.18;1.08;;;11.50;99.90;;;;;;5057419;28;20432;-69
2024/01/24 02:21:57;;;;;;;11.35;1.10;;;11.30;99.90;;;;;;5057656;28;20096;-70
2024/01/24 02:24:23;;;;;;;8.73;1.02;;;11.70;99.90;;;;;;5057657;28;20047;-72
2024/01/24 02:26:50;;;;;;;11.68;1.13;;;11.60;99.90;;;;;;5057225;28;20054;-70
2024/01/24 02:29:16;;;;;;;13.02;1.25;;;11.70;99.90;;;;;;5073152;28;20040;-71
2024/01/24 02:31:41;;;;;;;12.30;1.17;;;11.50;99.90;;;;;;5090987;28;20145;-70
2024/01/24 02:34:07;;;;;;;10.68;1.27;;;11.30;99.90;;;;;;5073590;28;20456;-70
2024/01/24 02:36:33;;;;;;;9.82;1.05;;;11.30;99.90;;;;;;5041730;28;20270;-69
2024/01/24 02:39:03;;;;;;;10.35;0.90;;;11.30;99.90;;;;;;5060240;28;20047;-70
2024/01/24 02:41:30;;;;;;;11.35;1.65;;;11.20;99.90;;;;;;5056923;28;20039;-70
2024/01/24 02:43:56;;;;;;;13.40;0.90;;;11.60;99.90;;;;;;5073164;28;20044;-69
2024/01/24 02:46:22;;;;;;;9.00;0.95;;;11.30;99.90;;;;;;5072697;28;20055;-70
2024/01/24 02:48:47;;;;;;;10.65;1.13;;;11.30;99.90;;;;;;5092711;27;20090;-70
2024/01/24 02:51:23;;;;;;;10.05;0.93;;;11.50;99.90;;;;;;5078783;28;20040;-69
2024/01/24 02:53:49;;;;;;;9.95;0.90;;;11.30;99.90;;;;;;5079160;28;20126;-70
2024/01/24 02:56:15;;;;;;;10.20;1.30;;;11.30;99.90;;;;;;5063119;28;20041;-69
2024/01/24 02:58:41;;;;;;;10.65;0.93;;;11.40;99.90;;;;;;5077605;28;20036;-70
2024/01/24 03:01:07;;;;;;;10.40;1.33;;;11.40;99.90;;;;;;5063056;28;20097;-69
2024/01/24 03:03:32;;;;;;;12.80;1.05;;;11.30;99.90;;;;;;5081622;28;20354;-70
2024/01/24 03:05:58;;;;;;;8.52;1.17;;;11.30;99.90;;;;;;5063779;28;20515;-69
2024/01/24 03:08:24;;;;;;;8.35;0.73;;;11.40;99.90;;;;;;5064227;28;20039;-69
2024/01/24 03:10:49;;;;;;;11.45;1.55;;;11.50;99.90;;;;;;5080719;28;20043;-69
2024/01/24 03:13:19;;;;;;;9.38;1.20;;;11.60;99.90;;;;;;5079760;28;20516;-68
2024/01/24 03:15:45;;;;;;;15.73;2.15;;;11.40;99.90;;;;;;5062757;28;20036;-68
2024/01/24 03:18:10;;;;;;;9.60;1.15;;;11.60;99.90;;;;;;5063921;28;20537;-69
2024/01/24 03:20:37;;;;;;;9.70;1.48;;;11.60;99.90;;;;;;5045051;28;20111;-69
2024/01/24 03:23:03;;;;;;;12.32;1.35;;;11.60;99.90;;;;;;5064009;28;20043;-69
2024/01/24 03:25:29;;;;;;;14.77;1.90;;;11.70;99.90;;;;;;5067504;28;20074;-68
2024/01/24 03:27:55;;;;;;;11.63;1.48;;;11.90;99.90;;;;;;5081029;28;20516;-67
2024/01/24 03:30:20;;;;;;;16.67;2.67;;;11.80;99.90;;;;;;5080589;28;20036;-68
2024/01/24 03:32:47;;;;;;;13.70;2.00;;;11.70;99.90;;;;;;5045834;28;20382;-68
2024/01/24 03:35:12;;;;;;;15.43;2.35;;;11.70;99.90;;;;;;5080097;28;20489;-68
2024/01/24 03:37:38;;;;;;;17.75;2.72;;;11.60;99.90;;;;;;5080340;28;20131;-67
2024/01/24 03:40:05;;;;;;;16.98;2.55;;;11.70;99.90;;;;;;5063039;28;20394;-68
2024/01/24 03:42:31;;;;;;;14.40;2.38;;;11.60;99.90;;;;;;5064241;28;20055;-68
2024/01/24 03:44:57;;;;;;;19.15;2.40;;;11.50;99.90;;;;;;5060877;28;20169;-68
2024/01/24 03:47:23;;;;;;;18.17;2.65;;;11.50;99.90;;;;;;5077833;28;20124;-68
2024/01/24 03:49:48;;;;;;;17.60;3.10;;;11.60;99.90;;;;;;5061943;28;20043;-67
2024/01/24 03:52:14;;;;;;;12.10;2.30;;;11.50;99.90;;;;;;5062321;28;20036;-68
2024/01/24 03:54:40;;;;;;;19.35;3.13;;;11.50;99.90;;;;;;5060757;28;20258;-68
2024/01/24 03:57:06;;;;;;;23.23;2.97;;;11.50;99.90;;;;;;5060903;28;20043;-67
2024/01/24 03:59:32;;;;;;;19.88;3.08;;;11.50;99.90;;;;;;5077222;28;20456;-67
2024/01/24 04:01:57;;;;;;;15.55;2.55;;;11.60;99.90;;;;;;5043889;28;20052;-67
2024/01/24 04:04:24;;;;;;;21.75;3.13;;;11.50;99.90;;;;;;5043999;28;20059;-68
2024/01/24 04:06:50;;;;;;;22.05;2.85;;;11.50;99.90;;;;;;5094417;28;20055;-67
2024/01/24 04:09:15;;;;;;;22.70;3.65;;;11.50;99.90;;;;;;5042936;28;20031;-69
2024/01/24 04:11:41;;;;;;;21.98;3.85;;;11.50;99.90;;;;;;5059683;28;20034;-67
2024/01/24 04:14:07;;;;;;;21.83;3.53;;;11.50;99.90;;;;;;5060053;28;20101;-67
2024/01/24 04:16:35;;;;;;;25.77;3.20;;;11.60;99.90;;;;;;5059406;28;20092;-68
2024/01/24 04:19:01;;;;;;;18.40;2.90;;;11.50;99.90;;;;;;5076854;28;20096;-67
2024/01/24 04:21:27;;;;;;;17.10;2.53;;;11.50;99.90;;;;;;5059371;28;20050;-68
2024/01/24 04:23:53;;;;;;;27.23;3.95;;;11.50;99.90;;;;;;5078070;28;20440;-67
2024/01/24 04:26:25;;;;;;;21.25;3.42;;;11.50;99.90;;;;;;5045054;28;20082;-66
2024/01/24 04:28:50;;;;;;;19.90;3.05;;;11.50;99.90;;;;;;5059920;28;20071;-66
2024/01/24 04:31:16;;;;;;;16.73;2.42;;;11.50;99.90;;;;;;5059355;28;20143;-68
2024/01/24 04:33:42;;;;;;;22.02;3.40;;;11.60;99.90;;;;;;5058643;28;20303;-67
2024/01/24 04:36:09;;;;;;;23.73;3.80;;;11.60;99.90;;;;;;5042748;28;20035;-67
2024/01/24 04:38:38;;;;;;;24.90;3.60;;;11.60;99.90;;;;;;5076240;28;20751;-67
2024/01/24 04:41:04;;;;;;;25.60;3.88;;;11.60;99.90;;;;;;5076648;28;20380;-67
2024/01/24 04:43:29;;;;;;;23.90;3.83;;;11.50;99.90;;;;;;5075947;28;20055;-67
2024/01/24 04:45:55;;;;;;;21.58;3.35;;;11.50;99.90;;;;;;5073647;28;20047;-67
2024/01/24 04:48:21;;;;;;;23.95;3.40;;;11.40;99.90;;;;;;5078608;28;20092;-67
2024/01/24 04:50:47;;;;;;;22.15;3.72;;;11.30;99.90;;;;;;5098394;28;20407;-67
2024/01/24 04:53:13;;;;;;;25.95;4.15;;;11.30;99.90;;;;;;5062211;28;20313;-67
2024/01/24 04:55:39;;;;;;;23.15;4.32;;;11.30;99.90;;;;;;5081342;28;20031;-68
2024/01/24 04:58:05;;;;;;;27.65;3.78;;;11.20;99.90;;;;;;5063727;28;20051;-67
2024/01/24 05:00:31;;;;;;;24.00;4.00;;;11.10;99.90;;;;;;5080193;28;20040;-68
2024/01/24 05:02:57;;;;;;;25.52;3.95;;;11.10;99.90;;;;;;5062789;28;20039;-67
2024/01/24 05:05:22;;;;;;;32.40;4.88;;;11.20;99.90;;;;;;5096651;28;20100;-66
2024/01/24 05:07:48;;;;;;;25.17;4.00;;;11.10;99.90;;;;;;5062595;28;20039;-66
2024/01/24 05:10:14;;;;;;;33.38;4.85;;;11.00;99.90;;;;;;5097301;28;20032;-66
2024/01/24 05:12:40;;;;;;;33.42;3.88;;;11.00;99.90;;;;;;5062487;28;20528;-65
2024/01/24 05:15:08;;;;;;;27.27;4.07;;;10.90;99.90;;;;;;5079340;28;20040;-66
2024/01/24 05:17:33;;;;;;;33.67;5.25;;;10.90;99.90;;;;;;5080514;28;20057;-66
2024/01/24 05:19:59;;;;;;;32.13;5.28;;;10.90;99.90;;;;;;5080341;28;20508;-66
2024/01/24 05:22:25;;;;;;;30.98;4.72;;;11.00;99.90;;;;;;5063398;28;20048;-66
2024/01/24 05:24:51;;;;;;;30.52;4.93;;;10.90;99.90;;;;;;5051031;28;20404;-66
2024/01/24 05:27:16;;;;;;;36.25;4.85;;;10.90;99.90;;;;;;5063273;28;20039;-66
2024/01/24 05:29:45;;;;;;;38.58;5.65;;;10.90;99.90;;;;;;5080051;28;20123;-66
2024/01/24 05:32:11;;;;;;;38.47;5.68;;;10.80;99.90;;;;;;5047061;28;20058;-66
2024/01/24 05:34:36;;;;;;;33.08;5.22;;;10.90;99.90;;;;;;5079172;28;20035;-66
2024/01/24 05:37:02;;;;;;;31.55;5.63;;;10.90;99.90;;;;;;5063348;28;20459;-67
2024/01/24 05:39:28;;;;;;;30.13;4.78;;;10.90;99.90;;;;;;5080026;28;20039;-66
2024/01/24 05:41:54;;;;;;;30.38;4.82;;;10.90;99.90;;;;;;5080521;28;20101;-66
2024/01/24 05:44:20;;;;;;;32.15;4.43;;;10.90;99.90;;;;;;5061884;28;20660;-66
2024/01/24 05:46:46;;;;;;;36.25;5.40;;;10.90;99.90;;;;;;5076721;28;20109;-66
2024/01/24 05:49:12;;;;;;;30.45;4.63;;;10.90;99.90;;;;;;5059511;28;20135;-66
2024/01/24 05:51:38;;;;;;;36.88;5.20;;;11.00;99.90;;;;;;5043284;28;20063;-66
2024/01/24 05:54:04;;;;;;;37.53;5.82;;;11.00;99.90;;;;;;5059083;28;20116;-66
2024/01/24 05:56:30;;;;;;;29.05;4.82;;;11.00;99.90;;;;;;5109537;27;20153;-66
2024/01/24 05:58:56;;;;;;;33.78;4.88;;;11.00;99.90;;;;;;5076560;28;20709;-66
2024/01/24 06:01:22;;;;;;;37.75;6.32;;;11.00;99.90;;;;;;5074443;28;20151;-66
2024/01/24 06:03:47;;;;;;;33.42;5.32;;;11.00;99.90;;;;;;5075009;28;20039;-68
2024/01/24 06:06:13;;;;;;;39.05;7.13;;;11.00;99.90;;;;;;5059017;28;20039;-66
2024/01/24 06:08:39;;;;;;;37.88;6.50;;;10.90;99.90;;;;;;5061968;28;20113;-66
2024/01/24 06:11:05;;;;;;;31.45;5.80;;;10.80;99.90;;;;;;5110266;27;20502;-66
2024/01/24 06:13:31;;;;;;;37.63;6.32;;;10.80;99.90;;;;;;5075384;28;20147;-66
2024/01/24 06:15:57;;;;;;;38.20;6.25;;;10.70;99.90;;;;;;5059281;28;20199;-66
2024/01/24 06:18:23;;;;;;;28.83;5.45;;;10.70;99.90;;;;;;5059297;28;20040;-65
2024/01/24 06:20:49;;;;;;;32.80;5.10;;;10.60;99.90;;;;;;5076290;28;20409;-66
2024/01/24 06:23:15;;;;;;;43.63;6.72;;;10.70;99.90;;;;;;5058139;28;20465;-65
2024/01/24 06:25:41;;;;;;;34.22;5.68;;;10.80;99.90;;;;;;5091971;28;20445;-66
2024/01/24 06:28:07;;;;;;;30.58;5.38;;;10.80;99.90;;;;;;5059003;28;20567;-65
2024/01/24 06:30:33;;;;;;;33.17;4.88;;;10.70;99.90;;;;;;5075062;28;20054;-66
2024/01/24 06:32:58;;;;;;;29.48;5.75;;;10.70;99.90;;;;;;5074704;28;20040;-66
2024/01/24 06:35:24;;;;;;;32.63;5.45;;;10.80;99.90;;;;;;5075420;28;20429;-65
2024/01/24 06:37:51;;;;;;;23.67;4.43;;;10.80;99.90;;;;;;5058360;28;20382;-66
2024/01/24 06:40:19;;;;;;;34.67;5.30;;;10.80;99.90;;;;;;5059181;28;20028;-66
2024/01/24 06:42:46;;;;;;;36.75;6.13;;;10.80;99.90;;;;;;5108948;27;20367;-66
2024/01/24 06:45:11;;;;;;;32.95;5.20;;;10.70;99.90;;;;;;5057783;28;20052;-66
2024/01/24 06:47:37;;;;;;;38.47;6.82;;;10.60;99.90;;;;;;5057801;28;20052;-66
2024/01/24 06:50:05;;;;;;;38.42;6.45;;;10.60;99.90;;;;;;5061519;28;20093;-67
2024/01/24 06:52:31;;;;;;;40.55;6.93;;;10.50;99.90;;;;;;5075546;28;20044;-67
2024/01/24 06:54:57;;;;;;;38.42;5.95;;;10.40;99.90;;;;;;5064028;28;20101;-66
2024/01/24 06:57:23;;;;;;;42.33;7.53;;;10.40;99.90;;;;;;5075503;28;20071;-66
2024/01/24 06:59:49;;;;;;;38.10;6.32;;;10.30;99.90;;;;;;5061336;28;20075;-66
2024/01/24 07:02:14;;;;;;;40.22;6.00;;;10.30;99.90;;;;;;5060778;28;20139;-67
2024/01/24 07:04:41;;;;;;;39.85;5.93;;;10.30;99.90;;;;;;5074269;28;20036;-66
2024/01/24 07:07:06;;;;;;;28.38;5.15;;;10.30;99.90;;;;;;5074636;28;20038;-66
2024/01/24 07:09:32;;;;;;;35.85;5.57;;;10.30;99.90;;;;;;5063353;28;20054;-66
2024/01/24 07:11:58;;;;;;;49.53;7.47;;;10.40;99.90;;;;;;5073371;28;20469;-66
2024/01/24 07:14:24;;;;;;;32.15;6.35;;;10.50;99.90;;;;;;5056571;28;20100;-68
2024/01/24 07:16:50;;;;;;;35.08;5.45;;;10.50;99.90;;;;;;5062247;28;20166;-67
2024/01/24 07:19:16;;;;;;;42.65;6.65;;;10.40;99.90;;;;;;5060910;28;20522;-67
2024/01/24 07:21:42;;;;;;;41.70;6.50;;;10.50;99.90;;;;;;5075348;28;20040;-67
2024/01/24 07:24:08;;;;;;;28.38;5.85;;;10.40;99.90;;;;;;5040662;28;20092;-68
2024/01/24 07:26:34;;;;;;;38.88;7.55;;;10.50;99.90;;;;;;5062021;28;20263;-67
2024/01/24 07:29:00;;;;;;;36.28;5.57;;;10.50;99.90;;;;;;5060322;28;20056;-66
2024/01/24 07:31:25;;;;;;;49.17;7.57;;;10.50;99.90;;;;;;5074918;28;20058;-68
2024/01/24 07:33:51;;;;;;;30.27;5.22;;;10.50;99.90;;;;;;5058103;28;20050;-66
2024/01/24 07:36:20;;;;;;;36.63;6.22;;;10.40;99.90;;;;;;5060140;28;20036;-66
2024/01/24 07:38:47;;;;;;;31.90;6.72;;;10.40;99.90;;;;;;5044812;28;20047;-66
2024/01/24 07:41:13;;;;;;;31.65;5.40;;;10.30;99.90;;;;;;5073914;28;20448;-67
2024/01/24 07:43:40;;;;;;;28.23;4.85;;;10.30;99.90;;;;;;5040070;28;20059;-66
2024/01/24 07:46:05;;;;;;;37.10;6.75;;;10.30;99.90;;;;;;5059327;28;20048;-65
2024/01/24 07:48:31;;;;;;;27.95;6.25;;;10.30;99.90;;;;;;5077265;28;20058;-68
2024/01/24 07:50:57;;;;;;;25.52;4.90;;;10.30;99.90;;;;;;5063591;28;20262;-66
2024/01/24 07:53:23;;;;;;;43.38;6.88;;;10.30;99.90;;;;;;5057704;28;20472;-66
2024/01/24 07:55:49;;;;;;;40.35;6.13;;;10.30;99.90;;;;;;5080130;28;20042;-66
2024/01/24 07:58:15;;;;;;;24.15;5.43;;;10.30;99.90;;;;;;5076642;28;20028;-66
2024/01/24 08:00:41;;;;;;;39.45;6.57;;;10.30;99.90;;;;;;5042576;28;20092;-66
2024/01/24 08:03:07;;;;;;;39.00;6.10;;;10.30;99.90;;;;;;5060415;28;20233;-67
2024/01/24 08:05:34;;;;;;;40.92;6.68;;;10.20;99.90;;;;;;5060358;28;20039;-66
2024/01/24 08:08:01;;;;;;;37.75;5.07;;;10.10;99.90;;;;;;5064401;28;20074;-67
2024/01/24 08:10:27;;;;;;;35.58;5.45;;;10.10;99.90;;;;;;5061324;28;20490;-67
2024/01/24 08:12:53;;;;;;;36.00;5.95;;;10.10;99.90;;;;;;5046983;28;20039;-66
2024/01/24 08:15:19;;;;;;;38.70;5.80;;;10.10;99.90;;;;;;5077341;28;20833;-67
2024/01/24 08:17:45;;;;;;;31.30;5.60;;;10.20;99.90;;;;;;5061947;28;20130;-68
2024/01/24 08:20:11;;;;;;;26.13;5.38;;;10.20;99.90;;;;;;5061009;28;20047;-67
2024/01/24 08:22:37;;;;;;;32.83;5.22;;;10.20;99.90;;;;;;5076576;28;20046;-66
2024/01/24 08:25:03;;;;;;;37.33;5.40;;;10.30;99.90;;;;;;5080772;28;20131;-66
2024/01/24 08:27:29;;;;;;;39.45;6.85;;;10.40;99.90;;;;;;5064312;28;20040;-66
2024/01/24 08:29:56;;;;;;;35.53;5.47;;;10.30;99.90;;;;;;5097412;28;20051;-67
2024/01/24 08:32:23;;;;;;;30.05;5.90;;;10.30;99.90;;;;;;5065420;28;20450;-68
2024/01/24 08:34:48;;;;;;;28.50;4.95;;;10.20;99.90;;;;;;5064691;28;20039;-66
2024/01/24 08:37:14;;;;;;;38.50;6.35;;;10.20;99.90;;;;;;5065149;28;20127;-68
2024/01/24 08:39:41;;;;;;;37.60;6.05;;;10.20;99.90;;;;;;5063779;28;20128;-67
2024/01/24 08:42:07;;;;;;;38.63;6.75;;;10.20;99.90;;;;;;5068086;28;20035;-67
2024/01/24 08:44:36;;;;;;;36.10;6.00;;;10.20;99.90;;;;;;5081088;28;20039;-67
2024/01/24 08:47:02;;;;;;;33.42;5.80;;;10.20;99.90;;;;;;5044300;28;21129;-67
2024/01/24 08:49:27;;;;;;;42.25;6.20;;;10.20;99.90;;;;;;5077163;28;20050;-67
2024/01/24 08:51:56;;;;;;;37.13;6.40;;;10.30;99.90;;;;;;5043669;28;20036;-65
2024/01/24 08:54:22;;;;;;;39.78;5.72;;;10.30;99.90;;;;;;5076683;28;20661;-66
2024/01/24 08:56:48;;;;;;;38.50;6.43;;;10.30;99.90;;;;;;5061793;28;20549;-66
2024/01/24 08:59:13;;;;;;;41.88;7.00;;;10.30;99.90;;;;;;5027765;28;20036;-68
2024/01/24 09:01:39;;;;;;;43.05;6.85;;;10.40;99.90;;;;;;5048388;28;20040;-67
2024/01/24 09:04:06;;;;;;;39.58;7.00;;;10.40;99.90;;;;;;5044361;28;20097;-67
2024/01/24 09:06:32;;;;;;;41.45;6.78;;;10.40;99.90;;;;;;5060478;28;20063;-66
2024/01/24 09:08:57;;;;;;;37.55;6.93;;;10.40;99.90;;;;;;5043611;28;20068;-66
2024/01/24 09:11:23;;;;;;;29.05;5.40;;;10.40;99.90;;;;;;5061852;28;20032;-67
2024/01/24 09:13:50;;;;;;;29.48;5.22;;;10.50;99.90;;;;;;5060555;28;20455;-67
2024/01/24 09:16:16;;;;;;;36.97;5.63;;;10.50;99.90;;;;;;5061651;28;20062;-67
2024/01/24 09:18:42;;;;;;;36.60;6.90;;;10.50;99.90;;;;;;5077443;28;20376;-66
2024/01/24 09:21:08;;;;;;;32.70;5.82;;;10.50;99.90;;;;;;5076886;28;20040;-67
2024/01/24 09:23:35;;;;;;;32.70;5.82;;;10.50;99.90;;;;;;5060110;28;20044;-67
2024/01/24 09:26:02;;;;;;;38.40;6.68;;;10.50;99.90;;;;;;5060516;28;20036;-67
2024/01/24 09:28:28;;;;;;;27.63;4.85;;;10.50;99.90;;;;;;5060639;28;20116;-67
2024/01/24 09:30:54;;;;;;;45.83;7.70;;;10.50;99.90;;;;;;5061143;28;20054;-66
2024/01/24 09:33:20;;;;;;;38.17;6.68;;;10.50;99.90;;;;;;5060503;28;20478;-67
2024/01/24 09:35:46;;;;;;;39.33;6.78;;;10.60;99.90;;;;;;5075415;28;20032;-66
2024/01/24 09:38:15;;;;;;;35.97;6.28;;;10.60;99.90;;;;;;5061235;28;20087;-68
2024/01/24 09:40:42;;;;;;;35.42;6.05;;;10.60;99.90;;;;;;5077380;28;20089;-66
2024/01/24 09:43:12;;;;;;;29.55;4.95;;;10.60;99.90;;;;;;5059774;28;20131;-67
2024/01/24 09:45:42;;;;;;;24.80;4.57;;;10.70;99.90;;;;;;5076350;28;20502;-66
2024/01/24 09:48:10;;;;;;;34.10;7.03;;;10.70;99.90;;;;;;5061791;28;20449;-67
2024/01/24 09:50:37;;;;;;;37.92;6.00;;;10.70;99.90;;;;;;5076580;28;20063;-66
2024/01/24 09:53:05;;;;;;;30.52;5.70;;;10.70;99.90;;;;;;5076440;28;20334;-66
2024/01/24 09:55:32;;;;;;;33.15;5.93;;;10.70;99.90;;;;;;5059746;28;20039;-65
2024/01/24 09:57:58;;;;;;;38.05;6.10;;;10.70;99.90;;;;;;5043712;28;20058;-68
2024/01/24 10:00:24;;;;;;;37.90;6.68;;;10.70;99.90;;;;;;5061582;28;21001;-65
2024/01/24 10:02:50;;;;;;;31.55;5.55;;;10.70;99.90;;;;;;5042446;28;20046;-66
2024/01/24 10:05:20;;;;;;;35.67;5.57;;;10.70;99.90;;;;;;5060020;28;20028;-66
2024/01/24 10:07:46;;;;;;;42.22;6.80;;;10.70;99.90;;;;;;5109476;27;20036;-66
2024/01/24 10:10:12;;;;;;;36.42;6.38;;;10.80;99.90;;;;;;5059894;28;20048;-66
2024/01/24 10:12:42;;;;;;;29.30;4.88;;;10.80;99.90;;;;;;5109226;27;20046;-67
2024/01/24 10:15:08;;;;;;;29.48;5.40;;;10.90;99.90;;;;;;5058112;28;20548;-66
2024/01/24 10:17:34;;;;;;;40.33;6.68;;;10.90;99.90;;;;;;5049246;28;20063;-67
2024/01/24 10:20:00;;;;;;;32.15;6.13;;;10.90;99.90;;;;;;5074963;28;20486;-66
2024/01/24 10:22:26;;;;;;;33.05;5.63;;;10.90;99.90;;;;;;5075655;28;20047;-66
2024/01/24 10:24:55;;;;;;;26.05;5.13;;;10.80;99.90;;;;;;5042310;28;20071;-66
2024/01/24 10:27:22;;;;;;;36.05;5.82;;;10.80;99.90;;;;;;5075099;28;20121;-67
2024/01/24 10:29:47;;;;;;;32.13;5.40;;;10.80;99.90;;;;;;5074626;28;20117;-67
2024/01/24 10:32:13;;;;;;;25.23;4.90;;;10.90;99.90;;;;;;5058149;28;20427;-66
2024/01/24 10:34:39;;;;;;;33.30;5.47;;;10.90;99.90;;;;;;5057695;28;20043;-67
2024/01/24 10:37:08;;;;;;;30.92;5.55;;;10.90;99.90;;;;;;5074028;28;20146;-67
2024/01/24 10:39:35;;;;;;;36.65;6.00;;;10.90;99.90;;;;;;5109337;27;20036;-66
2024/01/24 10:42:09;;;;;;;33.35;5.85;;;10.90;99.90;;;;;;5074373;28;20554;-68
2024/01/24 10:44:35;;;;;;;23.35;4.10;;;10.90;99.90;;;;;;5074447;28;20783;-67
2024/01/24 10:47:05;;;;;;;33.28;6.38;;;10.90;99.90;;;;;;5073701;28;20081;-65
2024/01/24 10:49:31;;;;;;;31.35;5.97;;;10.90;99.90;;;;;;5077232;28;20101;-67
2024/01/24 10:51:58;;;;;;;30.00;4.85;;;10.90;99.90;;;;;;5076159;28;20044;-67
2024/01/24 10:54:25;;;;;;;28.95;5.15;;;10.90;99.90;;;;;;5073970;28;20036;-67
2024/01/24 10:56:51;;;;;;;32.00;6.05;;;10.80;99.90;;;;;;5057137;28;20427;-66
2024/01/24 10:59:20;;;;;;;26.05;4.68;;;10.80;99.90;;;;;;5073599;28;20587;-66
2024/01/24 11:01:47;;;;;;;24.88;4.57;;;10.80;99.90;;;;;;5040094;28;20046;-66
2024/01/24 11:04:19;;;;;;;34.70;5.30;;;10.90;99.90;;;;;;5057486;28;20418;-67
2024/01/24 11:07:04;;;;;;;25.25;3.97;;;11.00;99.90;;;;;;5073579;28;20040;-67
2024/01/24 11:09:53;;;;;;;27.90;5.00;;;10.90;99.90;;;;;;5058376;28;20036;-66
2024/01/24 11:12:20;;;;;;;32.17;4.97;;;10.90;99.90;;;;;;5068989;28;20046;-68
2024/01/24 11:14:47;;;;;;;29.00;5.65;;;11.00;99.90;;;;;;5069766;28;20437;-68
2024/01/24 11:17:12;;;;;;;19.63;4.28;;;11.00;99.90;;;;;;5069779;28;20398;-68
2024/01/24 11:19:38;;;;;;;38.60;6.15;;;11.00;99.90;;;;;;5022483;28;20315;-67
2024/01/24 11:22:11;;;;;;;29.95;5.60;;;11.00;99.90;;;;;;5052782;28;20533;-67
2024/01/24 11:24:40;;;;;;;25.85;4.90;;;11.00;99.90;;;;;;5103117;27;20485;-68
2024/01/24 11:27:26;;;;;;;25.77;4.72;;;11.00;99.90;;;;;;5052966;28;20444;-67
2024/01/24 11:29:54;;;;;;;25.05;4.50;;;11.10;99.90;;;;;;5051978;28;20613;-68
2024/01/24 11:32:50;;;;;;;27.20;5.53;;;11.10;99.90;;;;;;5052833;28;20039;-67
2024/01/24 11:35:31;;;;;;;34.15;5.35;;;11.00;99.90;;;;;;5069458;28;20085;-67
2024/01/24 11:38:10;;;;;;;29.45;4.80;;;11.00;99.90;;;;;;5053409;28;20274;-67
2024/01/24 11:40:39;;;;;;;30.40;5.43;;;11.10;99.90;;;;;;5052029;28;20043;-66
2024/01/24 11:43:05;;;;;;;36.45;5.35;;;11.20;99.90;;;;;;5068911;28;20194;-68
2024/01/24 11:45:31;;;;;;;23.98;5.20;;;11.10;99.90;;;;;;5069454;28;20039;-68
2024/01/24 11:47:57;;;;;;;28.63;4.43;;;11.10;99.90;;;;;;5052561;28;20587;-69
2024/01/24 11:50:23;;;;;;;29.05;5.03;;;11.10;99.90;;;;;;5086773;28;20557;-69
2024/01/24 11:52:50;;;;;;;32.85;4.85;;;11.20;99.90;;;;;;5052208;28;20358;-67
2024/01/24 11:55:16;;;;;;;27.33;5.47;;;11.10;99.90;;;;;;5069973;28;20040;-66
2024/01/24 11:57:42;;;;;;;30.25;4.93;;;11.20;99.90;;;;;;5054682;28;20719;-66
2024/01/24 12:00:09;;;;;;;26.73;4.80;;;11.40;99.90;;;;;;5055534;28;20040;-66
2024/01/24 12:02:35;;;;;;;26.77;4.97;;;11.30;99.90;;;;;;5044260;28;20051;-65
2024/01/24 12:05:01;;;;;;;25.33;4.95;;;11.30;99.90;;;;;;5073179;28;20131;-66
2024/01/24 12:07:27;;;;;;;26.88;5.28;;;11.20;99.90;;;;;;5055377;28;20436;-67
2024/01/24 12:09:54;;;;;;;32.15;5.95;;;11.00;99.90;;;;;;5071886;28;21823;-67
2024/01/24 12:12:20;;;;;;;26.83;4.68;;;11.00;99.90;;;;;;5040694;28;20036;-66
2024/01/24 12:14:46;;;;;;;31.73;5.13;;;11.00;99.90;;;;;;5072700;28;20345;-65
2024/01/24 12:17:12;;;;;;;31.83;6.10;;;11.20;99.90;;;;;;5073661;28;20549;-68
2024/01/24 12:19:43;;;;;;;23.88;4.63;;;11.20;99.90;;;;;;5038904;28;20040;-68
2024/01/24 12:22:12;;;;;;;26.65;4.82;;;11.10;99.90;;;;;;5037838;28;20350;-66
2024/01/24 12:24:39;;;;;;;33.47;5.70;;;11.20;99.90;;;;;;5040129;28;20486;-68
2024/01/24 12:27:07;;;;;;;31.45;5.00;;;11.10;99.90;;;;;;5071153;28;20553;-67
2024/01/24 12:29:33;;;;;;;27.98;4.63;;;11.10;99.90;;;;;;5055406;28;20085;-67
2024/01/24 12:32:06;;;;;;;35.03;5.80;;;11.10;99.90;;;;;;5056105;28;20051;-67
2024/01/24 12:34:32;;;;;;;31.85;5.93;;;11.10;99.90;;;;;;5072103;28;20040;-66